PWSweather.com
Personal Weather Stations
Station Observations
PRATO
PratoIT 59100

PratoIT 59100

Lat: 43.8956799, Lon: 11.0845155

Elevation: 164

Station Type: Davis Vantage Vue

http://www.meteoprato.it

High Low Average
Temperature 75.9°F24.4°C 43.2°F6.2°C 60.8°F16.0°C
Dew Point 44.3°F6.8°C 32.2°F0.1°C 38.2°F3.4°C
Winds 10.2 mph 16.4 kmh Calm Calm 3.0 mph ENE4.8 kmh ENE
Wind Gusts 19.0 mph30.6 kmh -- 6.0 mph9.7 kmh
Humidity 80% 21% 48%
Pressure 29.99 in1015.6 mb 29.87 in1011.5 mb -
Precipitation 0.00 in0.0 mm - -
Hour Temp Dew Point Humidity Winds Wind Gusts Pressure Precip Precip Rate Daily Precip Total
12:00 AM 50.0°F10.0°C 39.1°F3.9°C 66% 0.3 mph NE0.5 kmh NE 4.0 mph6.4 kmh 29.99 in1015.6 mb 0.00 in0.0 mm 0.00 in0.0 mm 0.00 in0.0 mm
12:05 AM 49.9°F9.9°C 39.0°F3.9°C 66% 0.8 mph NE1.3 kmh NE 4.0 mph6.4 kmh 29.99 in1015.6 mb 0.00 in0.0 mm 0.00 in0.0 mm 0.00 in0.0 mm
12:10 AM 49.8°F9.9°C 38.9°F3.8°C 66% 0.7 mph 1.1 kmh -- 29.99 in1015.6 mb 0.00 in0.0 mm 0.00 in0.0 mm 0.00 in0.0 mm
12:15 AM 49.7°F9.8°C 38.8°F3.8°C 66% 0.2 mph 0.3 kmh -- 29.99 in1015.6 mb 0.00 in0.0 mm 0.00 in0.0 mm 0.00 in0.0 mm
12:20 AM 49.6°F9.8°C 39.1°F3.9°C 67% Calm Calm -- 29.99 in1015.6 mb 0.00 in0.0 mm 0.00 in0.0 mm 0.00 in0.0 mm
12:25 AM 49.6°F9.8°C 39.1°F3.9°C 67% Calm Calm -- 29.99 in1015.6 mb 0.00 in0.0 mm 0.00 in0.0 mm 0.00 in0.0 mm
12:30 AM 49.6°F9.8°C 39.1°F3.9°C 67% Calm Calm -- 29.99 in1015.6 mb 0.00 in0.0 mm 0.00 in0.0 mm 0.00 in0.0 mm
12:35 AM 49.6°F9.8°C 38.7°F3.7°C 66% Calm Calm -- 29.99 in1015.6 mb 0.00 in0.0 mm 0.00 in0.0 mm 0.00 in0.0 mm
12:40 AM 49.7°F9.8°C 38.8°F3.8°C 66% Calm Calm -- 29.99 in1015.6 mb 0.00 in0.0 mm 0.00 in0.0 mm 0.00 in0.0 mm
12:45 AM 49.8°F9.9°C 38.9°F3.8°C 66% Calm Calm -- 29.99 in1015.6 mb 0.00 in0.0 mm 0.00 in0.0 mm 0.00 in0.0 mm
12:50 AM 49.7°F9.8°C 38.8°F3.8°C 66% Calm Calm -- 29.99 in1015.6 mb 0.00 in0.0 mm 0.00 in0.0 mm 0.00 in0.0 mm
12:55 AM 49.5°F9.7°C 38.6°F3.7°C 66% Calm Calm -- 29.99 in1015.6 mb 0.00 in0.0 mm 0.00 in0.0 mm 0.00 in0.0 mm
01:00 AM 49.3°F9.6°C 38.4°F3.6°C 66% Calm Calm -- 29.99 in1015.6 mb 0.00 in0.0 mm 0.00 in0.0 mm 0.00 in0.0 mm
01:05 AM 48.9°F9.4°C 38.0°F3.3°C 66% Calm Calm -- 29.99 in1015.6 mb 0.00 in0.0 mm 0.00 in0.0 mm 0.00 in0.0 mm
01:10 AM 48.4°F9.1°C 37.9°F3.3°C 67% Calm Calm -- 29.99 in1015.6 mb 0.00 in0.0 mm 0.00 in0.0 mm 0.00 in0.0 mm
01:15 AM 48.1°F8.9°C 37.7°F3.2°C 67% Calm Calm -- 29.99 in1015.6 mb 0.00 in0.0 mm 0.00 in0.0 mm 0.00 in0.0 mm
01:20 AM 48.1°F8.9°C 37.7°F3.2°C 67% Calm Calm -- 29.99 in1015.6 mb 0.00 in0.0 mm 0.00 in0.0 mm 0.00 in0.0 mm
01:25 AM 48.0°F8.9°C 37.6°F3.1°C 67% Calm Calm -- 29.99 in1015.6 mb 0.00 in0.0 mm 0.00 in0.0 mm 0.00 in0.0 mm
01:30 AM 47.8°F8.8°C 37.7°F3.2°C 68% Calm Calm -- 29.99 in1015.6 mb 0.00 in0.0 mm 0.00 in0.0 mm 0.00 in0.0 mm
01:35 AM 47.7°F8.7°C 37.7°F3.2°C 68% Calm Calm -- 29.99 in1015.6 mb 0.00 in0.0 mm 0.00 in0.0 mm 0.00 in0.0 mm
01:40 AM 47.7°F8.7°C 38.0°F3.3°C 69% Calm Calm -- 29.99 in1015.6 mb 0.00 in0.0 mm 0.00 in0.0 mm 0.00 in0.0 mm
01:45 AM 47.8°F8.8°C 38.1°F3.4°C 69% Calm Calm -- 29.99 in1015.6 mb 0.00 in0.0 mm 0.00 in0.0 mm 0.00 in0.0 mm
01:50 AM 47.7°F8.7°C 38.0°F3.3°C 69% Calm Calm -- 29.99 in1015.6 mb 0.00 in0.0 mm 0.00 in0.0 mm 0.00 in0.0 mm
01:55 AM 47.7°F8.7°C 38.0°F3.3°C 69% Calm Calm -- 29.99 in1015.6 mb 0.00 in0.0 mm 0.00 in0.0 mm 0.00 in0.0 mm
02:00 AM 47.5°F8.6°C 38.2°F3.4°C 70% Calm Calm -- 29.99 in1015.6 mb 0.00 in0.0 mm 0.00 in0.0 mm 0.00 in0.0 mm
02:05 AM 47.4°F8.6°C 38.1°F3.4°C 70% Calm Calm -- 29.98 in1015.2 mb 0.00 in0.0 mm 0.00 in0.0 mm 0.00 in0.0 mm
02:10 AM 47.2°F8.4°C 37.9°F3.3°C 70% Calm Calm -- 29.98 in1015.2 mb 0.00 in0.0 mm 0.00 in0.0 mm 0.00 in0.0 mm
02:15 AM 47.1°F8.4°C 38.2°F3.4°C 71% Calm Calm -- 29.98 in1015.2 mb 0.00 in0.0 mm 0.00 in0.0 mm 0.00 in0.0 mm
02:20 AM 47.1°F8.4°C 38.2°F3.4°C 71% Calm Calm -- 29.98 in1015.2 mb 0.00 in0.0 mm 0.00 in0.0 mm 0.00 in0.0 mm
02:25 AM 47.0°F8.3°C 38.4°F3.6°C 72% Calm Calm -- 29.98 in1015.2 mb 0.00 in0.0 mm 0.00 in0.0 mm 0.00 in0.0 mm
02:30 AM 46.9°F8.3°C 38.0°F3.3°C 71% Calm Calm -- 29.97 in1014.9 mb 0.00 in0.0 mm 0.00 in0.0 mm 0.00 in0.0 mm
02:35 AM 46.9°F8.3°C 38.3°F3.5°C 72% Calm Calm -- 29.98 in1015.2 mb 0.00 in0.0 mm 0.00 in0.0 mm 0.00 in0.0 mm
02:40 AM 46.8°F8.2°C 38.2°F3.4°C 72% Calm Calm -- 29.97 in1014.9 mb 0.00 in0.0 mm 0.00 in0.0 mm 0.00 in0.0 mm
02:45 AM 46.7°F8.2°C 38.1°F3.4°C 72% Calm Calm -- 29.97 in1014.9 mb 0.00 in0.0 mm 0.00 in0.0 mm 0.00 in0.0 mm
02:50 AM 46.8°F8.2°C 38.2°F3.4°C 72% Calm Calm -- 29.97 in1014.9 mb 0.00 in0.0 mm 0.00 in0.0 mm 0.00 in0.0 mm
02:55 AM 46.8°F8.2°C 38.2°F3.4°C 72% Calm Calm -- 29.97 in1014.9 mb 0.00 in0.0 mm 0.00 in0.0 mm 0.00 in0.0 mm
03:00 AM 46.8°F8.2°C 38.2°F3.4°C 72% Calm Calm -- 29.97 in1014.9 mb 0.00 in0.0 mm 0.00 in0.0 mm 0.00 in0.0 mm
03:05 AM 46.8°F8.2°C 38.2°F3.4°C 72% Calm Calm -- 29.97 in1014.9 mb 0.00 in0.0 mm 0.00 in0.0 mm 0.00 in0.0 mm
03:10 AM 46.8°F8.2°C 38.2°F3.4°C 72% Calm Calm -- 29.97 in1014.9 mb 0.00 in0.0 mm 0.00 in0.0 mm 0.00 in0.0 mm
03:15 AM 46.7°F8.2°C 38.1°F3.4°C 72% Calm Calm -- 29.97 in1014.9 mb 0.00 in0.0 mm 0.00 in0.0 mm 0.00 in0.0 mm
03:20 AM 46.4°F8.0°C 37.9°F3.3°C 72% Calm Calm -- 29.97 in1014.9 mb 0.00 in0.0 mm 0.00 in0.0 mm 0.00 in0.0 mm
03:25 AM 46.1°F7.8°C 37.9°F3.3°C 73% Calm Calm -- 29.96 in1014.6 mb 0.00 in0.0 mm 0.00 in0.0 mm 0.00 in0.0 mm
03:30 AM 45.8°F7.7°C 37.6°F3.1°C 73% Calm Calm -- 29.96 in1014.6 mb 0.00 in0.0 mm 0.00 in0.0 mm 0.00 in0.0 mm
03:35 AM 45.7°F7.6°C 37.9°F3.3°C 74% Calm Calm -- 29.97 in1014.9 mb 0.00 in0.0 mm 0.00 in0.0 mm 0.00 in0.0 mm
03:40 AM 45.7°F7.6°C 37.9°F3.3°C 74% Calm Calm -- 29.96 in1014.6 mb 0.00 in0.0 mm 0.00 in0.0 mm 0.00 in0.0 mm
03:45 AM 45.7°F7.6°C 37.9°F3.3°C 74% Calm Calm -- 29.96 in1014.6 mb 0.00 in0.0 mm 0.00 in0.0 mm 0.00 in0.0 mm
03:50 AM 45.4°F7.4°C 37.6°F3.1°C 74% Calm Calm -- 29.96 in1014.6 mb 0.00 in0.0 mm 0.00 in0.0 mm 0.00 in0.0 mm
03:55 AM 45.1°F7.3°C 37.6°F3.1°C 75% Calm Calm -- 29.96 in1014.6 mb 0.00 in0.0 mm 0.00 in0.0 mm 0.00 in0.0 mm
04:00 AM 45.2°F7.3°C 38.1°F3.4°C 76% Calm Calm -- 29.96 in1014.6 mb 0.00 in0.0 mm 0.00 in0.0 mm 0.00 in0.0 mm
04:05 AM 45.2°F7.3°C 38.1°F3.4°C 76% Calm Calm -- 29.96 in1014.6 mb 0.00 in0.0 mm 0.00 in0.0 mm 0.00 in0.0 mm
04:10 AM 45.3°F7.4°C 38.2°F3.4°C 76% Calm Calm -- 29.96 in1014.6 mb 0.00 in0.0 mm 0.00 in0.0 mm 0.00 in0.0 mm
04:15 AM 45.4°F7.4°C 38.3°F3.5°C 76% Calm Calm -- 29.96 in1014.6 mb 0.00 in0.0 mm 0.00 in0.0 mm 0.00 in0.0 mm
04:20 AM 45.5°F7.5°C 38.4°F3.6°C 76% Calm Calm -- 29.96 in1014.6 mb 0.00 in0.0 mm 0.00 in0.0 mm 0.00 in0.0 mm
04:25 AM 45.5°F7.5°C 38.4°F3.6°C 76% Calm Calm -- 29.96 in1014.6 mb 0.00 in0.0 mm 0.00 in0.0 mm 0.00 in0.0 mm
04:30 AM 45.5°F7.5°C 38.0°F3.3°C 75% Calm Calm -- 29.96 in1014.6 mb 0.00 in0.0 mm 0.00 in0.0 mm 0.00 in0.0 mm
04:35 AM 45.4°F7.4°C 38.3°F3.5°C 76% Calm Calm -- 29.96 in1014.6 mb 0.00 in0.0 mm 0.00 in0.0 mm 0.00 in0.0 mm
04:40 AM 45.4°F7.4°C 38.3°F3.5°C 76% Calm Calm -- 29.96 in1014.6 mb 0.00 in0.0 mm 0.00 in0.0 mm 0.00 in0.0 mm
04:45 AM 45.2°F7.3°C 38.1°F3.4°C 76% Calm Calm -- 29.96 in1014.6 mb 0.00 in0.0 mm 0.00 in0.0 mm 0.00 in0.0 mm
04:50 AM 45.1°F7.3°C 38.0°F3.3°C 76% Calm Calm -- 29.96 in1014.6 mb 0.00 in0.0 mm 0.00 in0.0 mm 0.00 in0.0 mm
04:55 AM 45.1°F7.3°C 38.3°F3.5°C 77% Calm Calm -- 29.95 in1014.2 mb 0.00 in0.0 mm 0.00 in0.0 mm 0.00 in0.0 mm
05:00 AM 45.1°F7.3°C 38.3°F3.5°C 77% Calm Calm -- 29.96 in1014.6 mb 0.00 in0.0 mm 0.00 in0.0 mm 0.00 in0.0 mm
05:05 AM 44.9°F7.2°C 38.1°F3.4°C 77% Calm Calm -- 29.95 in1014.2 mb 0.00 in0.0 mm 0.00 in0.0 mm 0.00 in0.0 mm
05:10 AM 44.9°F7.2°C 38.5°F3.6°C 78% Calm Calm -- 29.95 in1014.2 mb 0.00 in0.0 mm 0.00 in0.0 mm 0.00 in0.0 mm
05:15 AM 45.1°F7.3°C 38.3°F3.5°C 77% Calm Calm -- 29.95 in1014.2 mb 0.00 in0.0 mm 0.00 in0.0 mm 0.00 in0.0 mm
05:20 AM 45.2°F7.3°C 38.4°F3.6°C 77% Calm Calm -- 29.95 in1014.2 mb 0.00 in0.0 mm 0.00 in0.0 mm 0.00 in0.0 mm
05:25 AM 45.1°F7.3°C 38.0°F3.3°C 76% Calm Calm -- 29.95 in1014.2 mb 0.00 in0.0 mm 0.00 in0.0 mm 0.00 in0.0 mm
05:30 AM 44.5°F6.9°C 37.7°F3.2°C 77% Calm Calm -- 29.95 in1014.2 mb 0.00 in0.0 mm 0.00 in0.0 mm 0.00 in0.0 mm
05:35 AM 43.9°F6.6°C 37.2°F2.9°C 77% Calm Calm -- 29.95 in1014.2 mb 0.00 in0.0 mm 0.00 in0.0 mm 0.00 in0.0 mm
05:40 AM 43.5°F6.4°C 37.1°F2.8°C 78% Calm Calm -- 29.95 in1014.2 mb 0.00 in0.0 mm 0.00 in0.0 mm 0.00 in0.0 mm
05:45 AM 43.2°F6.2°C 37.1°F2.8°C 79% Calm Calm -- 29.95 in1014.2 mb 0.00 in0.0 mm 0.00 in0.0 mm 0.00 in0.0 mm
05:50 AM 43.2°F6.2°C 37.1°F2.8°C 79% Calm Calm -- 29.95 in1014.2 mb 0.00 in0.0 mm 0.00 in0.0 mm 0.00 in0.0 mm
05:55 AM 43.2°F6.2°C 37.4°F3.0°C 80% Calm Calm -- 29.95 in1014.2 mb 0.00 in0.0 mm 0.00 in0.0 mm 0.00 in0.0 mm
06:00 AM 43.3°F6.3°C 37.5°F3.1°C 80% Calm Calm -- 29.95 in1014.2 mb 0.00 in0.0 mm 0.00 in0.0 mm 0.00 in0.0 mm
06:05 AM 43.4°F6.3°C 37.6°F3.1°C 80% Calm Calm -- 29.95 in1014.2 mb 0.00 in0.0 mm 0.00 in0.0 mm 0.00 in0.0 mm
06:10 AM 43.5°F6.4°C 37.7°F3.2°C 80% Calm Calm -- 29.95 in1014.2 mb 0.00 in0.0 mm 0.00 in0.0 mm 0.00 in0.0 mm
06:15 AM 43.6°F6.4°C 37.8°F3.2°C 80% Calm Calm -- 29.95 in1014.2 mb 0.00 in0.0 mm 0.00 in0.0 mm 0.00 in0.0 mm
06:20 AM 43.7°F6.5°C 37.9°F3.3°C 80% Calm Calm -- 29.95 in1014.2 mb 0.00 in0.0 mm 0.00 in0.0 mm 0.00 in0.0 mm
06:25 AM 43.7°F6.5°C 37.9°F3.3°C 80% Calm Calm -- 29.95 in1014.2 mb 0.00 in0.0 mm 0.00 in0.0 mm 0.00 in0.0 mm
06:30 AM 43.8°F6.6°C 38.0°F3.3°C 80% Calm Calm -- 29.95 in1014.2 mb 0.00 in0.0 mm 0.00 in0.0 mm 0.00 in0.0 mm
06:35 AM 44.0°F6.7°C 38.2°F3.4°C 80% Calm Calm -- 29.95 in1014.2 mb 0.00 in0.0 mm 0.00 in0.0 mm 0.00 in0.0 mm
06:40 AM 44.1°F6.7°C 38.3°F3.5°C 80% Calm Calm -- 29.95 in1014.2 mb 0.00 in0.0 mm 0.00 in0.0 mm 0.00 in0.0 mm
06:45 AM 44.6°F7.0°C 38.8°F3.8°C 80% Calm Calm -- 29.95 in1014.2 mb 0.00 in0.0 mm 0.00 in0.0 mm 0.00 in0.0 mm
06:50 AM 45.5°F7.5°C 39.7°F4.3°C 80% Calm Calm -- 29.96 in1014.6 mb 0.00 in0.0 mm 0.00 in0.0 mm 0.00 in0.0 mm
06:55 AM 46.6°F8.1°C 40.1°F4.5°C 78% Calm Calm -- 29.96 in1014.6 mb 0.00 in0.0 mm 0.00 in0.0 mm 0.00 in0.0 mm
07:00 AM 47.4°F8.6°C 40.6°F4.8°C 77% Calm Calm -- 29.96 in1014.6 mb 0.00 in0.0 mm 0.00 in0.0 mm 0.00 in0.0 mm
07:05 AM 48.1°F8.9°C 40.2°F4.6°C 74% Calm Calm -- 29.96 in1014.6 mb 0.00 in0.0 mm 0.00 in0.0 mm 0.00 in0.0 mm
07:10 AM 48.1°F8.9°C 39.9°F4.4°C 73% Calm Calm -- 29.96 in1014.6 mb 0.00 in0.0 mm 0.00 in0.0 mm 0.00 in0.0 mm
07:15 AM 48.0°F8.9°C 39.8°F4.3°C 73% Calm Calm -- 29.96 in1014.6 mb 0.00 in0.0 mm 0.00 in0.0 mm 0.00 in0.0 mm
07:20 AM 48.4°F9.1°C 40.5°F4.7°C 74% Calm Calm -- 29.96 in1014.6 mb 0.00 in0.0 mm 0.00 in0.0 mm 0.00 in0.0 mm
07:25 AM 49.2°F9.6°C 40.9°F4.9°C 73% Calm Calm -- 29.96 in1014.6 mb 0.00 in0.0 mm 0.00 in0.0 mm 0.00 in0.0 mm
07:30 AM 49.5°F9.7°C 40.1°F4.5°C 70% Calm Calm -- 29.96 in1014.6 mb 0.00 in0.0 mm 0.00 in0.0 mm 0.00 in0.0 mm
07:35 AM 49.2°F9.6°C 40.2°F4.6°C 71% Calm Calm 4.0 mph6.4 kmh 29.96 in1014.6 mb 0.00 in0.0 mm 0.00 in0.0 mm 0.00 in0.0 mm
07:40 AM 49.1°F9.5°C 40.1°F4.5°C 71% 0.5 mph WSW0.8 kmh WSW 4.0 mph6.4 kmh 29.96 in1014.6 mb 0.00 in0.0 mm 0.00 in0.0 mm 0.00 in0.0 mm
07:45 AM 49.6°F9.8°C 40.6°F4.8°C 71% 1.0 mph WSW1.6 kmh WSW 2.0 mph3.2 kmh 29.96 in1014.6 mb 0.00 in0.0 mm 0.00 in0.0 mm 0.00 in0.0 mm
07:50 AM 50.0°F10.0°C 40.6°F4.8°C 70% 1.0 mph WSW1.6 kmh WSW 3.0 mph4.8 kmh 29.96 in1014.6 mb 0.00 in0.0 mm 0.00 in0.0 mm 0.00 in0.0 mm
07:55 AM 50.4°F10.2°C 40.6°F4.8°C 69% 1.0 mph SW1.6 kmh SW 3.0 mph4.8 kmh 29.96 in1014.6 mb 0.00 in0.0 mm 0.00 in0.0 mm 0.00 in0.0 mm
08:00 AM 50.4°F10.2°C 40.6°F4.8°C 69% 1.0 mph WSW1.6 kmh WSW 4.0 mph6.4 kmh 29.96 in1014.6 mb 0.00 in0.0 mm 0.00 in0.0 mm 0.00 in0.0 mm
08:05 AM 50.9°F10.5°C 41.1°F5.1°C 69% 1.0 mph WSW1.6 kmh WSW 4.0 mph6.4 kmh 29.95 in1014.2 mb 0.00 in0.0 mm 0.00 in0.0 mm 0.00 in0.0 mm
08:10 AM 52.0°F11.1°C 42.1°F5.6°C 69% 0.8 mph WSW1.3 kmh WSW 2.0 mph3.2 kmh 29.96 in1014.6 mb 0.00 in0.0 mm 0.00 in0.0 mm 0.00 in0.0 mm
08:15 AM 52.5°F11.4°C 41.1°F5.1°C 65% 0.3 mph SSW0.5 kmh SSW 1.0 mph1.6 kmh 29.96 in1014.6 mb 0.00 in0.0 mm 0.00 in0.0 mm 0.00 in0.0 mm
08:20 AM 52.9°F11.6°C 41.4°F5.2°C 65% Calm Calm 2.0 mph3.2 kmh 29.96 in1014.6 mb 0.00 in0.0 mm 0.00 in0.0 mm 0.00 in0.0 mm
08:25 AM 53.2°F11.8°C 41.3°F5.2°C 64% Calm Calm 4.0 mph6.4 kmh 29.96 in1014.6 mb 0.00 in0.0 mm 0.00 in0.0 mm 0.00 in0.0 mm
08:30 AM 53.0°F11.7°C 41.1°F5.1°C 64% 0.4 mph SW0.6 kmh SW 4.0 mph6.4 kmh 29.96 in1014.6 mb 0.00 in0.0 mm 0.00 in0.0 mm 0.00 in0.0 mm
08:35 AM 53.3°F11.8°C 41.8°F5.4°C 65% 0.9 mph SW1.4 kmh SW 4.0 mph6.4 kmh 29.96 in1014.6 mb 0.00 in0.0 mm 0.00 in0.0 mm 0.00 in0.0 mm
08:40 AM 53.9°F12.2°C 42.0°F5.6°C 64% 0.8 mph SW1.3 kmh SW 3.0 mph4.8 kmh 29.96 in1014.6 mb 0.00 in0.0 mm 0.00 in0.0 mm 0.00 in0.0 mm
08:45 AM 54.3°F12.4°C 42.4°F5.8°C 64% 0.6 mph SW1.0 kmh SW 4.0 mph6.4 kmh 29.96 in1014.6 mb 0.00 in0.0 mm 0.00 in0.0 mm 0.00 in0.0 mm
08:50 AM 54.6°F12.6°C 42.3°F5.7°C 63% 0.8 mph SW1.3 kmh SW 4.0 mph6.4 kmh 29.96 in1014.6 mb 0.00 in0.0 mm 0.00 in0.0 mm 0.00 in0.0 mm
08:55 AM 55.0°F12.8°C 42.6°F5.9°C 63% 1.0 mph SW1.6 kmh SW 3.0 mph4.8 kmh 29.96 in1014.6 mb 0.00 in0.0 mm 0.00 in0.0 mm 0.00 in0.0 mm
09:00 AM 55.4°F13.0°C 43.0°F6.1°C 63% 0.8 mph W1.3 kmh W 2.0 mph3.2 kmh 29.96 in1014.6 mb 0.00 in0.0 mm 0.00 in0.0 mm 0.00 in0.0 mm
09:05 AM 55.8°F13.2°C 42.5°F5.8°C 61% 0.7 mph WSW1.1 kmh WSW 4.0 mph6.4 kmh 29.96 in1014.6 mb 0.00 in0.0 mm 0.00 in0.0 mm 0.00 in0.0 mm
09:10 AM 56.6°F13.7°C 43.3°F6.3°C 61% 0.9 mph WSW1.4 kmh WSW 4.0 mph6.4 kmh 29.96 in1014.6 mb 0.00 in0.0 mm 0.00 in0.0 mm 0.00 in0.0 mm
09:15 AM 57.0°F13.9°C 43.2°F6.2°C 60% 1.0 mph WSW1.6 kmh WSW 3.0 mph4.8 kmh 29.96 in1014.6 mb 0.00 in0.0 mm 0.00 in0.0 mm 0.00 in0.0 mm
09:20 AM 57.5°F14.2°C 43.3°F6.3°C 59% 0.8 mph WSW1.3 kmh WSW 3.0 mph4.8 kmh 29.96 in1014.6 mb 0.00 in0.0 mm 0.00 in0.0 mm 0.00 in0.0 mm
09:25 AM 58.3°F14.6°C 43.6°F6.4°C 58% 0.6 mph W1.0 kmh W 2.0 mph3.2 kmh 29.96 in1014.6 mb 0.00 in0.0 mm 0.00 in0.0 mm 0.00 in0.0 mm
09:30 AM 58.7°F14.8°C 43.0°F6.1°C 56% 0.6 mph WSW1.0 kmh WSW 4.0 mph6.4 kmh 29.96 in1014.6 mb 0.00 in0.0 mm 0.00 in0.0 mm 0.00 in0.0 mm
09:35 AM 59.1°F15.1°C 43.4°F6.3°C 56% 0.4 mph WSW0.6 kmh WSW 4.0 mph6.4 kmh 29.96 in1014.6 mb 0.00 in0.0 mm 0.00 in0.0 mm 0.00 in0.0 mm
09:40 AM 59.5°F15.3°C 43.3°F6.3°C 55% 0.6 mph WSW1.0 kmh WSW 4.0 mph6.4 kmh 29.96 in1014.6 mb 0.00 in0.0 mm 0.00 in0.0 mm 0.00 in0.0 mm
09:45 AM 59.9°F15.5°C 43.7°F6.5°C 55% 1.0 mph SW1.6 kmh SW 4.0 mph6.4 kmh 29.95 in1014.2 mb 0.00 in0.0 mm 0.00 in0.0 mm 0.00 in0.0 mm
09:50 AM 60.5°F15.8°C 43.3°F6.3°C 53% 1.0 mph WSW1.6 kmh WSW 4.0 mph6.4 kmh 29.95 in1014.2 mb 0.00 in0.0 mm 0.00 in0.0 mm 0.00 in0.0 mm
09:55 AM 61.1°F16.2°C 43.8°F6.6°C 53% 1.0 mph WSW1.6 kmh WSW 4.0 mph6.4 kmh 29.96 in1014.6 mb 0.00 in0.0 mm 0.00 in0.0 mm 0.00 in0.0 mm
10:00 AM 61.5°F16.4°C 43.7°F6.5°C 52% 1.0 mph SW1.6 kmh SW 6.0 mph9.7 kmh 29.96 in1014.6 mb 0.00 in0.0 mm 0.00 in0.0 mm 0.00 in0.0 mm
10:05 AM 61.9°F16.6°C 43.6°F6.4°C 51% 1.5 mph SW2.4 kmh SW 6.0 mph9.7 kmh 29.96 in1014.6 mb 0.00 in0.0 mm 0.00 in0.0 mm 0.00 in0.0 mm
10:10 AM 61.9°F16.6°C 43.0°F6.1°C 50% 2.2 mph SW3.5 kmh SW 6.0 mph9.7 kmh 29.96 in1014.6 mb 0.00 in0.0 mm 0.00 in0.0 mm 0.00 in0.0 mm
10:15 AM 62.3°F16.8°C 43.4°F6.3°C 50% 2.7 mph SW4.3 kmh SW 6.0 mph9.7 kmh 29.96 in1014.6 mb 0.00 in0.0 mm 0.00 in0.0 mm 0.00 in0.0 mm
10:20 AM 62.4°F16.9°C 44.0°F6.7°C 51% 3.3 mph SW5.3 kmh SW 8.0 mph12.9 kmh 29.96 in1014.6 mb 0.00 in0.0 mm 0.00 in0.0 mm 0.00 in0.0 mm
10:25 AM 62.9°F17.2°C 44.0°F6.7°C 50% 3.5 mph SW5.6 kmh SW 8.0 mph12.9 kmh 29.96 in1014.6 mb 0.00 in0.0 mm 0.00 in0.0 mm 0.00 in0.0 mm
10:30 AM 64.2°F17.9°C 44.1°F6.7°C 48% 3.4 mph SW5.5 kmh SW 7.0 mph11.3 kmh 29.95 in1014.2 mb 0.00 in0.0 mm 0.00 in0.0 mm 0.00 in0.0 mm
10:35 AM 64.4°F18.0°C 43.7°F6.5°C 47% 2.9 mph SW4.7 kmh SW 5.0 mph8.0 kmh 29.96 in1014.6 mb 0.00 in0.0 mm 0.00 in0.0 mm 0.00 in0.0 mm
10:40 AM 65.0°F18.3°C 44.3°F6.8°C 47% 2.2 mph WSW3.5 kmh WSW 5.0 mph8.0 kmh 29.96 in1014.6 mb 0.00 in0.0 mm 0.00 in0.0 mm 0.00 in0.0 mm
10:45 AM 66.2°F19.0°C 44.2°F6.8°C 45% 1.6 mph WSW2.6 kmh WSW 3.0 mph4.8 kmh 29.95 in1014.2 mb 0.00 in0.0 mm 0.00 in0.0 mm 0.00 in0.0 mm
10:50 AM 66.5°F19.2°C 43.9°F6.6°C 44% 1.0 mph WSW1.6 kmh WSW 5.0 mph8.0 kmh 29.95 in1014.2 mb 0.00 in0.0 mm 0.00 in0.0 mm 0.00 in0.0 mm
10:55 AM 66.8°F19.3°C 43.6°F6.4°C 43% 1.3 mph SW2.1 kmh SW 5.0 mph8.0 kmh 29.95 in1014.2 mb 0.00 in0.0 mm 0.00 in0.0 mm 0.00 in0.0 mm
11:00 AM 67.7°F19.8°C 43.8°F6.6°C 42% 1.8 mph SW2.9 kmh SW 5.0 mph8.0 kmh 29.95 in1014.2 mb 0.00 in0.0 mm 0.00 in0.0 mm 0.00 in0.0 mm
11:05 AM 68.7°F20.4°C 43.4°F6.3°C 40% 1.6 mph SW2.6 kmh SW 5.0 mph8.0 kmh 29.95 in1014.2 mb 0.00 in0.0 mm 0.00 in0.0 mm 0.00 in0.0 mm
11:10 AM 69.5°F20.8°C 43.4°F6.3°C 39% 1.2 mph WSW1.9 kmh WSW 5.0 mph8.0 kmh 29.95 in1014.2 mb 0.00 in0.0 mm 0.00 in0.0 mm 0.00 in0.0 mm
11:15 AM 70.0°F21.1°C 43.9°F6.6°C 39% 1.6 mph WSW2.6 kmh WSW 5.0 mph8.0 kmh 29.95 in1014.2 mb 0.00 in0.0 mm 0.00 in0.0 mm 0.00 in0.0 mm
11:20 AM 70.2°F21.2°C 42.0°F5.6°C 36% 2.2 mph SW3.5 kmh SW 5.0 mph8.0 kmh 29.95 in1014.2 mb 0.00 in0.0 mm 0.00 in0.0 mm 0.00 in0.0 mm
11:25 AM 70.6°F21.4°C 42.3°F5.7°C 36% 2.2 mph SW3.5 kmh SW 5.0 mph8.0 kmh 29.95 in1014.2 mb 0.00 in0.0 mm 0.00 in0.0 mm 0.00 in0.0 mm
11:30 AM 70.7°F21.5°C 41.7°F5.4°C 35% 2.0 mph WSW3.2 kmh WSW 5.0 mph8.0 kmh 29.95 in1014.2 mb 0.00 in0.0 mm 0.00 in0.0 mm 0.00 in0.0 mm
11:35 AM 71.1°F21.7°C 41.3°F5.2°C 34% 2.0 mph WSW3.2 kmh WSW 5.0 mph8.0 kmh 29.94 in1013.9 mb 0.00 in0.0 mm 0.00 in0.0 mm 0.00 in0.0 mm
11:40 AM 71.9°F22.2°C 42.8°F6.0°C 35% 1.9 mph WSW3.1 kmh WSW 6.0 mph9.7 kmh 29.94 in1013.9 mb 0.00 in0.0 mm 0.00 in0.0 mm 0.00 in0.0 mm
11:45 AM 72.4°F22.4°C 41.7°F5.4°C 33% 1.6 mph WSW2.6 kmh WSW 6.0 mph9.7 kmh 29.94 in1013.9 mb 0.00 in0.0 mm 0.00 in0.0 mm 0.00 in0.0 mm
11:50 AM 73.1°F22.8°C 40.7°F4.8°C 31% 1.6 mph WSW2.6 kmh WSW 6.0 mph9.7 kmh 29.94 in1013.9 mb 0.00 in0.0 mm 0.00 in0.0 mm 0.00 in0.0 mm
11:55 AM 73.4°F23.0°C 40.9°F4.9°C 31% 1.6 mph WSW2.6 kmh WSW 6.0 mph9.7 kmh 29.93 in1013.5 mb 0.00 in0.0 mm 0.00 in0.0 mm 0.00 in0.0 mm
12:00 PM 74.4°F23.6°C 40.1°F4.5°C 29% 1.3 mph WSW2.1 kmh WSW 4.0 mph6.4 kmh 29.93 in1013.5 mb 0.00 in0.0 mm 0.00 in0.0 mm 0.00 in0.0 mm
12:05 PM 74.7°F23.7°C 37.5°F3.1°C 26% 1.0 mph N1.6 kmh N 3.0 mph4.8 kmh 29.93 in1013.5 mb 0.00 in0.0 mm 0.00 in0.0 mm 0.00 in0.0 mm
12:10 PM 74.9°F23.8°C 37.7°F3.2°C 26% 0.7 mph NW1.1 kmh NW 18.0 mph29.0 kmh 29.93 in1013.5 mb 0.00 in0.0 mm 0.00 in0.0 mm 0.00 in0.0 mm
12:15 PM 74.4°F23.6°C 36.3°F2.4°C 25% 1.9 mph NE3.1 kmh NE 18.0 mph29.0 kmh 29.93 in1013.5 mb 0.00 in0.0 mm 0.00 in0.0 mm 0.00 in0.0 mm
12:20 PM 74.4°F23.6°C 35.2°F1.8°C 24% 3.7 mph NE6.0 kmh NE 12.0 mph19.3 kmh 29.93 in1013.5 mb 0.00 in0.0 mm 0.00 in0.0 mm 0.00 in0.0 mm
12:25 PM 74.9°F23.8°C 34.6°F1.4°C 23% 4.0 mph NE6.4 kmh NE 12.0 mph19.3 kmh 29.93 in1013.5 mb 0.00 in0.0 mm 0.00 in0.0 mm 0.00 in0.0 mm
12:30 PM 75.2°F24.0°C 34.8°F1.6°C 23% 3.0 mph NE4.8 kmh NE 14.0 mph22.5 kmh 29.93 in1013.5 mb 0.00 in0.0 mm 0.00 in0.0 mm 0.00 in0.0 mm
12:35 PM 74.6°F23.7°C 35.4°F1.9°C 24% 3.2 mph NE5.1 kmh NE 14.0 mph22.5 kmh 29.92 in1013.2 mb 0.00 in0.0 mm 0.00 in0.0 mm 0.00 in0.0 mm
12:40 PM 74.5°F23.6°C 34.2°F1.2°C 23% 5.2 mph NE8.4 kmh NE 13.0 mph20.9 kmh 29.93 in1013.5 mb 0.00 in0.0 mm 0.00 in0.0 mm 0.00 in0.0 mm
12:45 PM 74.5°F23.6°C 34.2°F1.2°C 23% 6.3 mph NE10.1 kmh NE 13.0 mph20.9 kmh 29.92 in1013.2 mb 0.00 in0.0 mm 0.00 in0.0 mm 0.00 in0.0 mm
12:50 PM 74.7°F23.7°C 33.3°F0.7°C 22% 6.1 mph NE9.8 kmh NE 13.0 mph20.9 kmh 29.92 in1013.2 mb 0.00 in0.0 mm 0.00 in0.0 mm 0.00 in0.0 mm
12:55 PM 75.0°F23.9°C 32.4°F0.2°C 21% 5.5 mph NE8.9 kmh NE 12.0 mph19.3 kmh 29.92 in1013.2 mb 0.00 in0.0 mm 0.00 in0.0 mm 0.00 in0.0 mm
01:00 PM 74.8°F23.8°C 33.4°F0.8°C 22% 4.7 mph NE7.6 kmh NE 8.0 mph12.9 kmh 29.91 in1012.9 mb 0.00 in0.0 mm 0.00 in0.0 mm 0.00 in0.0 mm
01:05 PM 75.1°F23.9°C 35.8°F2.1°C 24% 3.7 mph NE6.0 kmh NE 8.0 mph12.9 kmh 29.91 in1012.9 mb 0.00 in0.0 mm 0.00 in0.0 mm 0.00 in0.0 mm
01:10 PM 75.6°F24.2°C 35.2°F1.8°C 23% 3.7 mph NE6.0 kmh NE 14.0 mph22.5 kmh 29.91 in1012.9 mb 0.00 in0.0 mm 0.00 in0.0 mm 0.00 in0.0 mm
01:15 PM 75.1°F23.9°C 34.8°F1.6°C 23% 4.9 mph NE7.9 kmh NE 14.0 mph22.5 kmh 29.91 in1012.9 mb 0.00 in0.0 mm 0.00 in0.0 mm 0.00 in0.0 mm
01:20 PM 75.1°F23.9°C 33.6°F0.9°C 22% 6.3 mph NE10.1 kmh NE 14.0 mph22.5 kmh 29.91 in1012.9 mb 0.00 in0.0 mm 0.00 in0.0 mm 0.00 in0.0 mm
01:25 PM 75.0°F23.9°C 32.4°F0.2°C 21% 6.3 mph NE10.1 kmh NE 14.0 mph22.5 kmh 29.91 in1012.9 mb 0.00 in0.0 mm 0.00 in0.0 mm 0.00 in0.0 mm
01:30 PM 74.8°F23.8°C 32.2°F0.1°C 21% 5.5 mph NE8.9 kmh NE 11.0 mph17.7 kmh 29.90 in1012.5 mb 0.00 in0.0 mm 0.00 in0.0 mm 0.00 in0.0 mm
01:35 PM 75.8°F24.3°C 33.1°F0.6°C 21% 4.2 mph NNE6.8 kmh NNE 7.0 mph11.3 kmh 29.90 in1012.5 mb 0.00 in0.0 mm 0.00 in0.0 mm 0.00 in0.0 mm
01:40 PM 75.8°F24.3°C 34.2°F1.2°C 22% 2.2 mph NE3.5 kmh NE 5.0 mph8.0 kmh 29.90 in1012.5 mb 0.00 in0.0 mm 0.00 in0.0 mm 0.00 in0.0 mm
01:45 PM 75.7°F24.3°C 35.3°F1.8°C 23% 1.6 mph NE2.6 kmh NE 7.0 mph11.3 kmh 29.90 in1012.5 mb 0.00 in0.0 mm 0.00 in0.0 mm 0.00 in0.0 mm
01:50 PM 75.7°F24.3°C 34.1°F1.2°C 22% 2.7 mph NE4.3 kmh NE 12.0 mph19.3 kmh 29.89 in1012.2 mb 0.00 in0.0 mm 0.00 in0.0 mm 0.00 in0.0 mm
01:55 PM 75.8°F24.3°C 35.3°F1.8°C 23% 3.9 mph NE6.3 kmh NE 12.0 mph19.3 kmh 29.89 in1012.2 mb 0.00 in0.0 mm 0.00 in0.0 mm 0.00 in0.0 mm
02:00 PM 75.3°F24.1°C 34.9°F1.6°C 23% 5.2 mph NE8.4 kmh NE 14.0 mph22.5 kmh 29.89 in1012.2 mb 0.00 in0.0 mm 0.00 in0.0 mm 0.00 in0.0 mm
02:05 PM 75.2°F24.0°C 35.9°F2.2°C 24% 6.9 mph NE11.1 kmh NE 14.0 mph22.5 kmh 29.89 in1012.2 mb 0.00 in0.0 mm 0.00 in0.0 mm 0.00 in0.0 mm
02:10 PM 75.6°F24.2°C 35.2°F1.8°C 23% 7.4 mph NE11.9 kmh NE 14.0 mph22.5 kmh 29.89 in1012.2 mb 0.00 in0.0 mm 0.00 in0.0 mm 0.00 in0.0 mm
02:15 PM 75.5°F24.2°C 34.0°F1.1°C 22% 6.1 mph NE9.8 kmh NE 10.0 mph16.1 kmh 29.89 in1012.2 mb 0.00 in0.0 mm 0.00 in0.0 mm 0.00 in0.0 mm
02:20 PM 75.7°F24.3°C 34.1°F1.2°C 22% 5.1 mph NE8.2 kmh NE 11.0 mph17.7 kmh 29.89 in1012.2 mb 0.00 in0.0 mm 0.00 in0.0 mm 0.00 in0.0 mm
02:25 PM 75.4°F24.1°C 33.9°F1.1°C 22% 4.7 mph NE7.6 kmh NE 12.0 mph19.3 kmh 29.88 in1011.9 mb 0.00 in0.0 mm 0.00 in0.0 mm 0.00 in0.0 mm
02:30 PM 75.7°F24.3°C 34.1°F1.2°C 22% 5.4 mph NE8.7 kmh NE 13.0 mph20.9 kmh 29.88 in1011.9 mb 0.00 in0.0 mm 0.00 in0.0 mm 0.00 in0.0 mm
02:35 PM 75.5°F24.2°C 34.0°F1.1°C 22% 6.3 mph NE10.1 kmh NE 13.0 mph20.9 kmh 29.88 in1011.9 mb 0.00 in0.0 mm 0.00 in0.0 mm 0.00 in0.0 mm
02:40 PM 75.4°F24.1°C 33.9°F1.1°C 22% 5.8 mph NE9.3 kmh NE 10.0 mph16.1 kmh 29.88 in1011.9 mb 0.00 in0.0 mm 0.00 in0.0 mm 0.00 in0.0 mm
02:45 PM 75.7°F24.3°C 34.1°F1.2°C 22% 4.2 mph NE6.8 kmh NE 8.0 mph12.9 kmh 29.88 in1011.9 mb 0.00 in0.0 mm 0.00 in0.0 mm 0.00 in0.0 mm
02:50 PM 75.9°F24.4°C 34.3°F1.3°C 22% 3.0 mph NE4.8 kmh NE 13.0 mph20.9 kmh 29.88 in1011.9 mb 0.00 in0.0 mm 0.00 in0.0 mm 0.00 in0.0 mm
02:55 PM 75.7°F24.3°C 34.1°F1.2°C 22% 4.4 mph NE7.1 kmh NE 16.0 mph25.7 kmh 29.88 in1011.9 mb 0.00 in0.0 mm 0.00 in0.0 mm 0.00 in0.0 mm
03:00 PM 75.6°F24.2°C 34.1°F1.2°C 22% 7.0 mph NE11.3 kmh NE 16.0 mph25.7 kmh 29.88 in1011.9 mb 0.00 in0.0 mm 0.00 in0.0 mm 0.00 in0.0 mm
03:05 PM 75.3°F24.1°C 33.8°F1.0°C 22% 7.6 mph NE12.2 kmh NE 14.0 mph22.5 kmh 29.88 in1011.9 mb 0.00 in0.0 mm 0.00 in0.0 mm 0.00 in0.0 mm
03:10 PM 75.0°F23.9°C 34.7°F1.5°C 23% 6.6 mph NE10.6 kmh NE 13.0 mph20.9 kmh 29.88 in1011.9 mb 0.00 in0.0 mm 0.00 in0.0 mm 0.00 in0.0 mm
03:15 PM 75.2°F24.0°C 35.9°F2.2°C 24% 5.6 mph NE9.0 kmh NE 11.0 mph17.7 kmh 29.88 in1011.9 mb 0.00 in0.0 mm 0.00 in0.0 mm 0.00 in0.0 mm
03:20 PM 74.9°F23.8°C 34.6°F1.4°C 23% 5.4 mph NE8.7 kmh NE 13.0 mph20.9 kmh 29.88 in1011.9 mb 0.00 in0.0 mm 0.00 in0.0 mm 0.00 in0.0 mm
03:25 PM 74.8°F23.8°C 34.5°F1.4°C 23% 6.2 mph NE10.0 kmh NE 13.0 mph20.9 kmh 29.88 in1011.9 mb 0.00 in0.0 mm 0.00 in0.0 mm 0.00 in0.0 mm
03:30 PM 75.0°F23.9°C 35.7°F2.1°C 24% 6.5 mph NE10.5 kmh NE 14.0 mph22.5 kmh 29.88 in1011.9 mb 0.00 in0.0 mm 0.00 in0.0 mm 0.00 in0.0 mm
03:35 PM 74.9°F23.8°C 34.6°F1.4°C 23% 6.8 mph NE10.9 kmh NE 14.0 mph22.5 kmh 29.88 in1011.9 mb 0.00 in0.0 mm 0.00 in0.0 mm 0.00 in0.0 mm
03:40 PM 74.8°F23.8°C 36.6°F2.6°C 25% 7.6 mph NE12.2 kmh NE 15.0 mph24.1 kmh 29.88 in1011.9 mb 0.00 in0.0 mm 0.00 in0.0 mm 0.00 in0.0 mm
03:45 PM 74.7°F23.7°C 36.5°F2.5°C 25% 8.0 mph NE12.9 kmh NE 15.0 mph24.1 kmh 29.88 in1011.9 mb 0.00 in0.0 mm 0.00 in0.0 mm 0.00 in0.0 mm
03:50 PM 74.4°F23.6°C 36.3°F2.4°C 25% 8.2 mph NE13.2 kmh NE 15.0 mph24.1 kmh 29.88 in1011.9 mb 0.00 in0.0 mm 0.00 in0.0 mm 0.00 in0.0 mm
03:55 PM 74.3°F23.5°C 36.2°F2.3°C 25% 8.6 mph NE13.8 kmh NE 15.0 mph24.1 kmh 29.88 in1011.9 mb 0.00 in0.0 mm 0.00 in0.0 mm 0.00 in0.0 mm
04:00 PM 74.3°F23.5°C 36.2°F2.3°C 25% 8.7 mph NE14.0 kmh NE 15.0 mph24.1 kmh 29.88 in1011.9 mb 0.00 in0.0 mm 0.00 in0.0 mm 0.00 in0.0 mm
04:05 PM 74.3°F23.5°C 35.2°F1.8°C 24% 8.6 mph NE13.8 kmh NE 15.0 mph24.1 kmh 29.88 in1011.9 mb 0.00 in0.0 mm 0.00 in0.0 mm 0.00 in0.0 mm
04:10 PM 74.2°F23.4°C 36.1°F2.3°C 25% 8.3 mph NE13.4 kmh NE 14.0 mph22.5 kmh 29.88 in1011.9 mb 0.00 in0.0 mm 0.00 in0.0 mm 0.00 in0.0 mm
04:15 PM 73.9°F23.3°C 35.8°F2.1°C 25% 7.5 mph NE12.1 kmh NE 17.0 mph27.4 kmh 29.88 in1011.9 mb 0.00 in0.0 mm 0.00 in0.0 mm 0.00 in0.0 mm
04:20 PM 73.7°F23.2°C 36.7°F2.6°C 26% 7.7 mph NE12.4 kmh NE 17.0 mph27.4 kmh 29.88 in1011.9 mb 0.00 in0.0 mm 0.00 in0.0 mm 0.00 in0.0 mm
04:25 PM 73.7°F23.2°C 36.7°F2.6°C 26% 8.6 mph NE13.8 kmh NE 17.0 mph27.4 kmh 29.88 in1011.9 mb 0.00 in0.0 mm 0.00 in0.0 mm 0.00 in0.0 mm
04:30 PM 73.6°F23.1°C 36.6°F2.6°C 26% 8.5 mph NE13.7 kmh NE 12.0 mph19.3 kmh 29.88 in1011.9 mb 0.00 in0.0 mm 0.00 in0.0 mm 0.00 in0.0 mm
04:35 PM 73.5°F23.1°C 36.5°F2.5°C 26% 7.9 mph NE12.7 kmh NE 13.0 mph20.9 kmh 29.87 in1011.5 mb 0.00 in0.0 mm 0.00 in0.0 mm 0.00 in0.0 mm
04:40 PM 73.2°F22.9°C 36.2°F2.3°C 26% 8.0 mph NE12.9 kmh NE 15.0 mph24.1 kmh 29.88 in1011.9 mb 0.00 in0.0 mm 0.00 in0.0 mm 0.00 in0.0 mm
04:45 PM 73.1°F22.8°C 37.1°F2.8°C 27% 8.9 mph NE14.3 kmh NE 19.0 mph30.6 kmh 29.87 in1011.5 mb 0.00 in0.0 mm 0.00 in0.0 mm 0.00 in0.0 mm
04:50 PM 73.0°F22.8°C 37.0°F2.8°C 27% 9.8 mph NE15.8 kmh NE 19.0 mph30.6 kmh 29.87 in1011.5 mb 0.00 in0.0 mm 0.00 in0.0 mm 0.00 in0.0 mm
04:55 PM 72.9°F22.7°C 36.9°F2.7°C 27% 10.0 mph NE16.1 kmh NE 19.0 mph30.6 kmh 29.87 in1011.5 mb 0.00 in0.0 mm 0.00 in0.0 mm 0.00 in0.0 mm
05:00 PM 72.8°F22.7°C 36.9°F2.7°C 27% 9.9 mph NE15.9 kmh NE 19.0 mph30.6 kmh 29.87 in1011.5 mb 0.00 in0.0 mm 0.00 in0.0 mm 0.00 in0.0 mm
05:05 PM 72.6°F22.6°C 36.7°F2.6°C 27% 9.6 mph NE15.4 kmh NE 16.0 mph25.7 kmh 29.87 in1011.5 mb 0.00 in0.0 mm 0.00 in0.0 mm 0.00 in0.0 mm
05:10 PM 72.5°F22.5°C 36.6°F2.6°C 27% 9.7 mph NE15.6 kmh NE 16.0 mph25.7 kmh 29.87 in1011.5 mb 0.00 in0.0 mm 0.00 in0.0 mm 0.00 in0.0 mm
05:15 PM 72.3°F22.4°C 36.4°F2.4°C 27% 10.0 mph NE16.1 kmh NE 18.0 mph29.0 kmh 29.87 in1011.5 mb 0.00 in0.0 mm 0.00 in0.0 mm 0.00 in0.0 mm
05:20 PM 72.1°F22.3°C 37.2°F2.9°C 28% 10.0 mph NE16.1 kmh NE 18.0 mph29.0 kmh 29.87 in1011.5 mb 0.00 in0.0 mm 0.00 in0.0 mm 0.00 in0.0 mm
05:25 PM 71.8°F22.1°C 36.9°F2.7°C 28% 10.0 mph NE16.1 kmh NE 16.0 mph25.7 kmh 29.87 in1011.5 mb 0.00 in0.0 mm 0.00 in0.0 mm 0.00 in0.0 mm
05:30 PM 71.6°F22.0°C 36.8°F2.7°C 28% 9.6 mph NE15.4 kmh NE 16.0 mph25.7 kmh 29.87 in1011.5 mb 0.00 in0.0 mm 0.00 in0.0 mm 0.00 in0.0 mm
05:35 PM 71.4°F21.9°C 36.6°F2.6°C 28% 9.2 mph NE14.8 kmh NE 16.0 mph25.7 kmh 29.88 in1011.9 mb 0.00 in0.0 mm 0.00 in0.0 mm 0.00 in0.0 mm
05:40 PM 71.1°F21.7°C 36.3°F2.4°C 28% 9.6 mph NE15.4 kmh NE 17.0 mph27.4 kmh 29.88 in1011.9 mb 0.00 in0.0 mm 0.00 in0.0 mm 0.00 in0.0 mm
05:45 PM 71.0°F21.7°C 37.1°F2.8°C 29% 10.2 mph NE16.4 kmh NE 17.0 mph27.4 kmh 29.88 in1011.9 mb 0.00 in0.0 mm 0.00 in0.0 mm 0.00 in0.0 mm
05:50 PM 70.8°F21.6°C 36.1°F2.3°C 28% 9.9 mph NE15.9 kmh NE 17.0 mph27.4 kmh 29.88 in1011.9 mb 0.00 in0.0 mm 0.00 in0.0 mm 0.00 in0.0 mm
05:55 PM 70.6°F21.4°C 36.8°F2.7°C 29% 9.5 mph NE15.3 kmh NE 17.0 mph27.4 kmh 29.88 in1011.9 mb 0.00 in0.0 mm 0.00 in0.0 mm 0.00 in0.0 mm
06:00 PM 70.4°F21.3°C 36.6°F2.6°C 29% 9.7 mph NE15.6 kmh NE 15.0 mph24.1 kmh 29.88 in1011.9 mb 0.00 in0.0 mm 0.00 in0.0 mm 0.00 in0.0 mm
06:05 PM 70.3°F21.3°C 36.5°F2.5°C 29% 9.4 mph NE15.1 kmh NE 15.0 mph24.1 kmh 29.89 in1012.2 mb 0.00 in0.0 mm 0.00 in0.0 mm 0.00 in0.0 mm
06:10 PM 70.1°F21.2°C 36.3°F2.4°C 29% 8.8 mph NE14.2 kmh NE 16.0 mph25.7 kmh 29.88 in1011.9 mb 0.00 in0.0 mm 0.00 in0.0 mm 0.00 in0.0 mm
06:15 PM 69.9°F21.1°C 36.2°F2.3°C 29% 8.3 mph NE13.4 kmh NE 16.0 mph25.7 kmh 29.88 in1011.9 mb 0.00 in0.0 mm 0.00 in0.0 mm 0.00 in0.0 mm
06:20 PM 69.7°F20.9°C 36.9°F2.7°C 30% 8.1 mph NE13.0 kmh NE 16.0 mph25.7 kmh 29.89 in1012.2 mb 0.00 in0.0 mm 0.00 in0.0 mm 0.00 in0.0 mm
06:25 PM 69.5°F20.8°C 36.7°F2.6°C 30% 8.2 mph NE13.2 kmh NE 14.0 mph22.5 kmh 29.89 in1012.2 mb 0.00 in0.0 mm 0.00 in0.0 mm 0.00 in0.0 mm
06:30 PM 69.3°F20.7°C 36.5°F2.5°C 30% 8.4 mph NE13.5 kmh NE 16.0 mph25.7 kmh 29.88 in1011.9 mb 0.00 in0.0 mm 0.00 in0.0 mm 0.00 in0.0 mm
06:35 PM 69.0°F20.6°C 36.3°F2.4°C 30% 8.3 mph NE13.4 kmh NE 17.0 mph27.4 kmh 29.88 in1011.9 mb 0.00 in0.0 mm 0.00 in0.0 mm 0.00 in0.0 mm
06:40 PM 68.8°F20.4°C 36.9°F2.7°C 31% 7.6 mph NE12.2 kmh NE 17.0 mph27.4 kmh 29.89 in1012.2 mb 0.00 in0.0 mm 0.00 in0.0 mm 0.00 in0.0 mm
06:45 PM 68.6°F20.3°C 36.7°F2.6°C 31% 7.1 mph NE11.4 kmh NE 14.0 mph22.5 kmh 29.89 in1012.2 mb 0.00 in0.0 mm 0.00 in0.0 mm 0.00 in0.0 mm
06:50 PM 68.4°F20.2°C 36.6°F2.6°C 31% 7.2 mph NE11.6 kmh NE 13.0 mph20.9 kmh 29.89 in1012.2 mb 0.00 in0.0 mm 0.00 in0.0 mm 0.00 in0.0 mm
06:55 PM 68.2°F20.1°C 37.2°F2.9°C 32% 7.7 mph NE12.4 kmh NE 13.0 mph20.9 kmh 29.89 in1012.2 mb 0.00 in0.0 mm 0.00 in0.0 mm 0.00 in0.0 mm
07:00 PM 68.1°F20.1°C 37.1°F2.8°C 32% 8.0 mph NE12.9 kmh NE 13.0 mph20.9 kmh 29.89 in1012.2 mb 0.00 in0.0 mm 0.00 in0.0 mm 0.00 in0.0 mm
07:05 PM 67.9°F19.9°C 36.9°F2.7°C 32% 8.0 mph NE12.9 kmh NE 13.0 mph20.9 kmh 29.89 in1012.2 mb 0.00 in0.0 mm 0.00 in0.0 mm 0.00 in0.0 mm
07:10 PM 67.7°F19.8°C 37.5°F3.1°C 33% 8.0 mph NE12.9 kmh NE 13.0 mph20.9 kmh 29.89 in1012.2 mb 0.00 in0.0 mm 0.00 in0.0 mm 0.00 in0.0 mm
07:15 PM 67.6°F19.8°C 37.5°F3.1°C 33% 7.8 mph NE12.6 kmh NE 13.0 mph20.9 kmh 29.90 in1012.5 mb 0.00 in0.0 mm 0.00 in0.0 mm 0.00 in0.0 mm
07:20 PM 67.4°F19.7°C 37.3°F2.9°C 33% 7.4 mph NE11.9 kmh NE 14.0 mph22.5 kmh 29.90 in1012.5 mb 0.00 in0.0 mm 0.00 in0.0 mm 0.00 in0.0 mm
07:25 PM 67.2°F19.6°C 37.1°F2.8°C 33% 6.9 mph NE11.1 kmh NE 14.0 mph22.5 kmh 29.90 in1012.5 mb 0.00 in0.0 mm 0.00 in0.0 mm 0.00 in0.0 mm
07:30 PM 67.1°F19.5°C 37.8°F3.2°C 34% 6.2 mph NE10.0 kmh NE 12.0 mph19.3 kmh 29.91 in1012.9 mb 0.00 in0.0 mm 0.00 in0.0 mm 0.00 in0.0 mm
07:35 PM 66.7°F19.3°C 37.4°F3.0°C 34% 5.0 mph NE8.0 kmh NE 9.0 mph14.5 kmh 29.91 in1012.9 mb 0.00 in0.0 mm 0.00 in0.0 mm 0.00 in0.0 mm
07:40 PM 66.4°F19.1°C 37.9°F3.3°C 35% 3.0 mph NNE4.8 kmh NNE 4.0 mph6.4 kmh 29.92 in1013.2 mb 0.00 in0.0 mm 0.00 in0.0 mm 0.00 in0.0 mm
07:45 PM 66.4°F19.1°C 37.9°F3.3°C 35% 0.9 mph NE1.4 kmh NE 6.0 mph9.7 kmh 29.92 in1013.2 mb 0.00 in0.0 mm 0.00 in0.0 mm 0.00 in0.0 mm
07:50 PM 66.6°F19.2°C 37.3°F2.9°C 34% 0.7 mph NE1.1 kmh NE 6.0 mph9.7 kmh 29.93 in1013.5 mb 0.00 in0.0 mm 0.00 in0.0 mm 0.00 in0.0 mm
07:55 PM 66.6°F19.2°C 38.1°F3.4°C 35% 1.6 mph NE2.6 kmh NE 7.0 mph11.3 kmh 29.93 in1013.5 mb 0.00 in0.0 mm 0.00 in0.0 mm 0.00 in0.0 mm
08:00 PM 66.6°F19.2°C 37.3°F2.9°C 34% 2.0 mph NE3.2 kmh NE 7.0 mph11.3 kmh 29.93 in1013.5 mb 0.00 in0.0 mm 0.00 in0.0 mm 0.00 in0.0 mm
08:05 PM 66.5°F19.2°C 38.0°F3.3°C 35% 2.0 mph NE3.2 kmh NE 6.0 mph9.7 kmh 29.94 in1013.9 mb 0.00 in0.0 mm 0.00 in0.0 mm 0.00 in0.0 mm
08:10 PM 66.4°F19.1°C 37.9°F3.3°C 35% 1.7 mph NE2.7 kmh NE 6.0 mph9.7 kmh 29.94 in1013.9 mb 0.00 in0.0 mm 0.00 in0.0 mm 0.00 in0.0 mm
08:15 PM 66.1°F18.9°C 38.4°F3.6°C 36% 2.0 mph NE3.2 kmh NE 7.0 mph11.3 kmh 29.94 in1013.9 mb 0.00 in0.0 mm 0.00 in0.0 mm 0.00 in0.0 mm
08:20 PM 65.9°F18.8°C 38.2°F3.4°C 36% 3.4 mph NE5.5 kmh NE 11.0 mph17.7 kmh 29.94 in1013.9 mb 0.00 in0.0 mm 0.00 in0.0 mm 0.00 in0.0 mm
08:25 PM 65.6°F18.7°C 38.6°F3.7°C 37% 4.9 mph NE7.9 kmh NE 11.0 mph17.7 kmh 29.94 in1013.9 mb 0.00 in0.0 mm 0.00 in0.0 mm 0.00 in0.0 mm
08:35 PM 65.0°F18.3°C 38.8°F3.8°C 38% 6.0 mph NE9.7 kmh NE 9.0 mph14.5 kmh 29.94 in1013.9 mb 0.00 in0.0 mm 0.00 in0.0 mm 0.00 in0.0 mm
08:40 PM 64.5°F18.1°C 38.3°F3.5°C 38% 6.0 mph NE9.7 kmh NE 9.0 mph14.5 kmh 29.94 in1013.9 mb 0.00 in0.0 mm 0.00 in0.0 mm 0.00 in0.0 mm
08:45 PM 63.8°F17.7°C 38.4°F3.6°C 39% 5.1 mph NE8.2 kmh NE 6.0 mph9.7 kmh 29.94 in1013.9 mb 0.00 in0.0 mm 0.00 in0.0 mm 0.00 in0.0 mm
08:50 PM 63.4°F17.4°C 38.6°F3.7°C 40% 3.7 mph NE6.0 kmh NE 5.0 mph8.0 kmh 29.94 in1013.9 mb 0.00 in0.0 mm 0.00 in0.0 mm 0.00 in0.0 mm
08:55 PM 63.0°F17.2°C 38.3°F3.5°C 40% 2.4 mph NE3.9 kmh NE 3.0 mph4.8 kmh 29.94 in1013.9 mb 0.00 in0.0 mm 0.00 in0.0 mm 0.00 in0.0 mm
09:00 PM 62.6°F17.0°C 39.2°F4.0°C 42% 1.2 mph NE1.9 kmh NE 2.0 mph3.2 kmh 29.94 in1013.9 mb 0.00 in0.0 mm 0.00 in0.0 mm 0.00 in0.0 mm
09:05 PM 62.4°F16.9°C 38.4°F3.6°C 41% 0.3 mph NNE0.5 kmh NNE 4.0 mph6.4 kmh 29.94 in1013.9 mb 0.00 in0.0 mm 0.00 in0.0 mm 0.00 in0.0 mm
09:10 PM 62.7°F17.1°C 38.0°F3.3°C 40% 0.4 mph NE0.6 kmh NE 5.0 mph8.0 kmh 29.95 in1014.2 mb 0.00 in0.0 mm 0.00 in0.0 mm 0.00 in0.0 mm
09:15 PM 63.0°F17.2°C 38.3°F3.5°C 40% 1.3 mph NE2.1 kmh NE 5.0 mph8.0 kmh 29.95 in1014.2 mb 0.00 in0.0 mm 0.00 in0.0 mm 0.00 in0.0 mm
09:20 PM 63.1°F17.3°C 37.7°F3.2°C 39% 2.0 mph NE3.2 kmh NE 4.0 mph6.4 kmh 29.95 in1014.2 mb 0.00 in0.0 mm 0.00 in0.0 mm 0.00 in0.0 mm
09:25 PM 63.1°F17.3°C 37.7°F3.2°C 39% 1.5 mph NE2.4 kmh NE 4.0 mph6.4 kmh 29.94 in1013.9 mb 0.00 in0.0 mm 0.00 in0.0 mm 0.00 in0.0 mm
09:30 PM 62.9°F17.2°C 37.5°F3.1°C 39% 1.0 mph NE1.6 kmh NE 3.0 mph4.8 kmh 29.94 in1013.9 mb 0.00 in0.0 mm 0.00 in0.0 mm 0.00 in0.0 mm
09:35 PM 62.9°F17.2°C 37.5°F3.1°C 39% 1.0 mph NE1.6 kmh NE 3.0 mph4.8 kmh 29.94 in1013.9 mb 0.00 in0.0 mm 0.00 in0.0 mm 0.00 in0.0 mm
09:40 PM 62.9°F17.2°C 37.5°F3.1°C 39% 1.0 mph NE1.6 kmh NE 3.0 mph4.8 kmh 29.95 in1014.2 mb 0.00 in0.0 mm 0.00 in0.0 mm 0.00 in0.0 mm
09:45 PM 62.7°F17.1°C 37.4°F3.0°C 39% 1.0 mph NE1.6 kmh NE 6.0 mph9.7 kmh 29.94 in1013.9 mb 0.00 in0.0 mm 0.00 in0.0 mm 0.00 in0.0 mm
09:50 PM 62.6°F17.0°C 37.3°F2.9°C 39% 1.2 mph NE1.9 kmh NE 6.0 mph9.7 kmh 29.94 in1013.9 mb 0.00 in0.0 mm 0.00 in0.0 mm 0.00 in0.0 mm
09:55 PM 62.4°F16.9°C 37.7°F3.2°C 40% 1.7 mph NE2.7 kmh NE 6.0 mph9.7 kmh 29.95 in1014.2 mb 0.00 in0.0 mm 0.00 in0.0 mm 0.00 in0.0 mm
10:00 PM 62.1°F16.7°C 37.5°F3.1°C 40% 1.7 mph NE2.7 kmh NE 5.0 mph8.0 kmh 29.94 in1013.9 mb 0.00 in0.0 mm 0.00 in0.0 mm 0.00 in0.0 mm
10:05 PM 61.8°F16.6°C 37.8°F3.2°C 41% 0.8 mph NNE1.3 kmh NNE 1.0 mph1.6 kmh 29.95 in1014.2 mb 0.00 in0.0 mm 0.00 in0.0 mm 0.00 in0.0 mm
10:10 PM 61.2°F16.2°C 37.9°F3.3°C 42% 0.1 mph NNE0.2 kmh NNE 2.0 mph3.2 kmh 29.95 in1014.2 mb 0.00 in0.0 mm 0.00 in0.0 mm 0.00 in0.0 mm
10:15 PM 60.9°F16.1°C 38.2°F3.4°C 43% Calm Calm 2.0 mph3.2 kmh 29.94 in1013.9 mb 0.00 in0.0 mm 0.00 in0.0 mm 0.00 in0.0 mm
10:20 PM 60.7°F15.9°C 38.1°F3.4°C 43% Calm Calm -- 29.95 in1014.2 mb 0.00 in0.0 mm 0.00 in0.0 mm 0.00 in0.0 mm
10:25 PM 60.5°F15.8°C 37.9°F3.3°C 43% Calm Calm -- 29.94 in1013.9 mb 0.00 in0.0 mm 0.00 in0.0 mm 0.00 in0.0 mm
10:30 PM 60.2°F15.7°C 38.2°F3.4°C 44% Calm Calm -- 29.94 in1013.9 mb 0.00 in0.0 mm 0.00 in0.0 mm 0.00 in0.0 mm
10:35 PM 59.9°F15.5°C 37.9°F3.3°C 44% Calm Calm 4.0 mph6.4 kmh 29.94 in1013.9 mb 0.00 in0.0 mm 0.00 in0.0 mm 0.00 in0.0 mm
10:40 PM 59.9°F15.5°C 37.9°F3.3°C 44% 0.3 mph NE0.5 kmh NE 4.0 mph6.4 kmh 29.94 in1013.9 mb 0.00 in0.0 mm 0.00 in0.0 mm 0.00 in0.0 mm
10:45 PM 59.9°F15.5°C 37.9°F3.3°C 44% 0.8 mph NE1.3 kmh NE 5.0 mph8.0 kmh 29.94 in1013.9 mb 0.00 in0.0 mm 0.00 in0.0 mm 0.00 in0.0 mm
10:50 PM 59.7°F15.4°C 37.7°F3.2°C 44% 1.0 mph NE1.6 kmh NE 5.0 mph8.0 kmh 29.94 in1013.9 mb 0.00 in0.0 mm 0.00 in0.0 mm 0.00 in0.0 mm
10:55 PM 59.6°F15.3°C 38.2°F3.4°C 45% 0.7 mph NE1.1 kmh NE 2.0 mph3.2 kmh 29.94 in1013.9 mb 0.00 in0.0 mm 0.00 in0.0 mm 0.00 in0.0 mm
11:00 PM 59.7°F15.4°C 37.7°F3.2°C 44% 0.3 mph NE0.5 kmh NE 3.0 mph4.8 kmh 29.94 in1013.9 mb 0.00 in0.0 mm 0.00 in0.0 mm 0.00 in0.0 mm
11:05 PM 59.9°F15.5°C 37.3°F2.9°C 43% 0.6 mph NE1.0 kmh NE 3.0 mph4.8 kmh 29.94 in1013.9 mb 0.00 in0.0 mm 0.00 in0.0 mm 0.00 in0.0 mm
11:10 PM 59.6°F15.3°C 37.6°F3.1°C 44% 0.8 mph NE1.3 kmh NE 1.0 mph1.6 kmh 29.94 in1013.9 mb 0.00 in0.0 mm 0.00 in0.0 mm 0.00 in0.0 mm
11:15 PM 59.2°F15.1°C 37.9°F3.3°C 45% 0.3 mph 0.5 kmh -- 29.94 in1013.9 mb 0.00 in0.0 mm 0.00 in0.0 mm 0.00 in0.0 mm
11:20 PM 59.0°F15.0°C 37.7°F3.2°C 45% Calm Calm -- 29.94 in1013.9 mb 0.00 in0.0 mm 0.00 in0.0 mm 0.00 in0.0 mm
11:25 PM 58.7°F14.8°C 37.4°F3.0°C 45% Calm Calm 1.0 mph1.6 kmh 29.94 in1013.9 mb 0.00 in0.0 mm 0.00 in0.0 mm 0.00 in0.0 mm
11:30 PM 58.6°F14.8°C 37.9°F3.3°C 46% Calm Calm 3.0 mph4.8 kmh 29.94 in1013.9 mb 0.00 in0.0 mm 0.00 in0.0 mm 0.00 in0.0 mm
11:35 PM 58.4°F14.7°C 37.7°F3.2°C 46% 0.1 mph NNE0.2 kmh NNE 3.0 mph4.8 kmh 29.94 in1013.9 mb 0.00 in0.0 mm 0.00 in0.0 mm 0.00 in0.0 mm
11:40 PM 58.2°F14.6°C 37.5°F3.1°C 46% 0.3 mph NNE0.5 kmh NNE 2.0 mph3.2 kmh 29.94 in1013.9 mb 0.00 in0.0 mm 0.00 in0.0 mm 0.00 in0.0 mm
11:45 PM 58.0°F14.4°C 37.9°F3.3°C 47% 0.2 mph NNE0.3 kmh NNE 2.0 mph3.2 kmh 29.94 in1013.9 mb 0.00 in0.0 mm 0.00 in0.0 mm 0.00 in0.0 mm
11:50 PM 57.7°F14.3°C 37.6°F3.1°C 47% 0.1 mph NNE0.2 kmh NNE 4.0 mph6.4 kmh 29.94 in1013.9 mb 0.00 in0.0 mm 0.00 in0.0 mm 0.00 in0.0 mm
11:55 PM 57.4°F14.1°C 37.9°F3.3°C 48% 0.6 mph NNE1.0 kmh NNE 4.0 mph6.4 kmh 29.94 in1013.9 mb 0.00 in0.0 mm 0.00 in0.0 mm 0.00 in0.0 mm